Time;durP1;ratioP1;P1;durP2;ratioP2;P2;SDS_P1;SDS_P2;PMS_P1;PMS_P2;Temp;Humidity;BMP_temperature;BMP_pressure;BME280_temperature;BME280_humidity;BME280_pressure;Samples;Min_cycle;Max_cycle;Signal;HPM_P1;HPM_P2
2022/11/17 00:02:25;;;;;;;;;;;;;;;2.77;79.55;99866.61;116325;1303;22441;-67
2022/11/17 00:05:13;;;;;;;;;;;;;;;2.75;79.55;99869.73;116295;1303;22454;-66
2022/11/17 00:08:10;;;;;;;;;;;;;;;2.75;79.80;99869.05;116320;1285;22444;-66
2022/11/17 00:11:00;;;;;;;;;;;;;;;2.77;79.78;99872.64;116340;1285;22468;-67
2022/11/17 00:16:54;;;;;;;;;;;;;;;2.87;80.09;99873.36;116318;1295;24199;-67
2022/11/17 00:22:52;;;;;;;;;;;;;;;2.85;79.58;99875.80;116308;1303;22439;-67
2022/11/17 00:25:42;;;;;;;;;;;;;;;2.81;79.07;99878.43;116326;1286;22451;-66
2022/11/17 00:28:33;;;;;;;;;;;;;;;2.76;78.74;99876.27;116316;1298;22439;-69
2022/11/17 00:34:32;;;;;;;;;;;;;;;2.72;78.35;99877.20;116296;1303;22453;-69
2022/11/17 00:37:21;;;;;;;;;;;;;;;2.73;78.69;99876.13;116350;1284;22543;-69
2022/11/17 00:40:12;;;;;;;;;;;;;;;2.76;78.87;99878.51;116302;1285;22435;-68
2022/11/17 00:43:01;;;;;;;;;;;;;;;2.79;79.08;99883.46;116328;1285;24243;-68
2022/11/17 00:45:50;;;;;;;;;;;;;;;2.77;79.15;99881.43;116336;1280;22466;-69
2022/11/17 00:48:44;;;;;;;;;;;;;;;2.74;78.75;99885.95;116328;1303;25350;-67
2022/11/17 00:51:35;;;;;;;;;;;;;;;2.69;78.85;99883.95;116335;1285;22446;-67
2022/11/17 00:54:24;;;;;;;;;;;;;;;2.68;78.39;99887.58;116324;1285;24503;-68
2022/11/17 00:57:16;;;;;;;;;;;;;;;2.69;78.39;99885.83;116368;1293;22563;-69
2022/11/17 01:00:11;;;;;;;;;;;;;;;2.69;78.15;99879.98;116328;1303;22574;-67
2022/11/17 01:03:02;;;;;;;;;;;;;;;2.67;77.79;99887.94;116334;1297;22482;-67
2022/11/17 01:05:53;;;;;;;;;;;;;;;2.65;77.36;99886.75;116339;1296;23874;-67
2022/11/17 01:08:45;;;;;;;;;;;;;;;2.62;77.72;99885.09;116358;1302;26143;-69
2022/11/17 01:11:39;;;;;;;;;;;;;;;2.57;77.00;99883.60;116338;1302;22448;-68
2022/11/17 01:14:29;;;;;;;;;;;;;;;2.50;76.99;99886.43;116346;1287;22853;-67
2022/11/17 01:17:17;;;;;;;;;;;;;;;2.44;76.57;99885.99;116339;1281;22449;-68
2022/11/17 01:20:08;;;;;;;;;;;;;;;2.38;76.31;99883.66;116379;1285;22435;-66
2022/11/17 01:23:00;;;;;;;;;;;;;;;2.37;76.90;99878.86;116367;1295;22479;-68
2022/11/17 01:25:49;;;;;;;;;;;;;;;2.39;76.61;99878.48;116301;1303;22449;-66
2022/11/17 01:28:42;;;;;;;;;;;;;;;2.38;76.49;99879.37;116334;1284;22572;-68
2022/11/17 01:31:34;;;;;;;;;;;;;;;2.36;76.61;99877.31;116304;1290;22430;-66
2022/11/17 01:34:25;;;;;;;;;;;;;;;2.33;76.60;99881.14;116330;1297;22430;-67
2022/11/17 01:37:21;;;;;;;;;;;;;;;2.29;76.37;99888.58;116326;1303;22437;-68
2022/11/17 01:40:12;;;;;;;;;;;;;;;2.26;76.09;99883.46;116346;1280;22445;-67
2022/11/17 01:42:59;;;;;;;;;;;;;;;2.27;76.35;99881.39;116375;1303;22445;-67
2022/11/17 01:45:47;;;;;;;;;;;;;;;2.30;76.52;99880.14;116332;1294;22451;-68
2022/11/17 01:48:40;;;;;;;;;;;;;;;2.32;76.53;99874.10;116345;1303;22443;-69
2022/11/17 01:51:31;;;;;;;;;;;;;;;2.31;76.03;99877.89;116336;1298;25188;-68
2022/11/17 01:54:20;;;;;;;;;;;;;;;2.28;76.17;99876.05;116350;1303;22447;-67
2022/11/17 01:57:12;;;;;;;;;;;;;;;2.24;76.01;99872.30;116338;1303;22487;-70
2022/11/17 02:00:00;;;;;;;;;;;;;;;2.20;76.32;99876.64;116386;1284;25242;-69
2022/11/17 02:02:51;;;;;;;;;;;;;;;2.18;76.35;99880.64;116292;1295;22503;-68
2022/11/17 02:05:49;;;;;;;;;;;;;;;2.12;75.90;99875.54;116325;1285;22462;-69
2022/11/17 02:08:37;;;;;;;;;;;;;;;2.06;76.11;99871.64;116334;1303;22427;-69
2022/11/17 02:11:26;;;;;;;;;;;;;;;2.08;76.37;99871.30;116330;1280;22501;-67
2022/11/17 02:14:13;;;;;;;;;;;;;;;2.11;75.99;99873.14;116305;1285;22449;-67
2022/11/17 02:17:03;;;;;;;;;;;;;;;2.10;75.09;99867.81;116323;1291;22536;-66
2022/11/17 02:19:53;;;;;;;;;;;;;;;2.10;74.80;99871.96;116344;1303;22546;-66
2022/11/17 02:23:29;;;;;;;;;;;;;;;2.07;74.54;99869.23;116344;1280;22485;-66
2022/11/17 02:26:45;;;;;;;;;;;;;;;2.00;74.29;99866.05;116338;1303;22478;-67
2022/11/17 02:29:36;;;;;;;;;;;;;;;1.93;73.82;99866.30;116376;1287;25367;-66
2022/11/17 02:32:31;;;;;;;;;;;;;;;1.88;74.11;99859.82;116383;1303;22436;-69
2022/11/17 02:35:26;;;;;;;;;;;;;;;1.83;73.68;99862.80;116401;1303;22460;-69
2022/11/17 02:38:24;;;;;;;;;;;;;;;1.82;74.14;99857.29;116311;1292;22442;-69
2022/11/17 02:41:15;;;;;;;;;;;;;;;1.83;73.50;99866.41;116340;1297;22463;-66
2022/11/17 02:44:06;;;;;;;;;;;;;;;1.81;73.30;99871.74;116366;1303;22430;-68
2022/11/17 02:46:58;;;;;;;;;;;;;;;1.80;73.28;99863.67;116334;1301;24379;-68
2022/11/17 02:49:52;;;;;;;;;;;;;;;1.78;73.49;99864.58;116358;1279;24238;-66
2022/11/17 02:52:40;;;;;;;;;;;;;;;1.77;73.56;99867.33;116345;1285;22441;-68
2022/11/17 02:55:32;;;;;;;;;;;;;;;1.74;73.38;99864.77;116290;1303;25258;-66
2022/11/17 02:58:19;;;;;;;;;;;;;;;1.70;73.55;99865.00;116339;1296;24411;-68
2022/11/17 03:01:19;;;;;;;;;;;;;;;1.65;73.50;99865.73;116348;1284;22491;-69
2022/11/17 03:04:17;;;;;;;;;;;;;;;1.63;73.30;99868.50;116306;1282;22441;-67
2022/11/17 03:07:16;;;;;;;;;;;;;;;1.61;72.83;99866.28;116342;1303;22451;-69
2022/11/17 03:10:12;;;;;;;;;;;;;;;1.59;73.36;99863.91;116365;1285;22448;-68
2022/11/17 03:13:02;;;;;;;;;;;;;;;1.57;73.18;99864.42;116375;1303;22444;-68
2022/11/17 03:16:00;;;;;;;;;;;;;;;1.54;73.56;99870.83;116313;1303;22453;-68
2022/11/17 03:18:51;;;;;;;;;;;;;;;1.51;73.79;99872.21;116355;1303;22451;-66
2022/11/17 03:21:40;;;;;;;;;;;;;;;1.47;73.79;99873.11;116292;1292;24241;-67
2022/11/17 03:24:29;;;;;;;;;;;;;;;1.43;74.39;99871.09;116334;1303;22477;-69
2022/11/17 03:27:20;;;;;;;;;;;;;;;1.40;74.35;99866.46;116353;1298;22459;-68
2022/11/17 03:30:10;;;;;;;;;;;;;;;1.41;74.87;99870.58;116343;1291;22445;-69
2022/11/17 03:33:01;;;;;;;;;;;;;;;1.43;74.70;99867.65;116318;1281;24265;-67
2022/11/17 03:35:50;;;;;;;;;;;;;;;1.45;74.86;99865.58;116354;1297;22502;-67
2022/11/17 03:38:41;;;;;;;;;;;;;;;1.47;74.91;99862.27;116252;1279;22461;-67
2022/11/17 03:41:28;;;;;;;;;;;;;;;1.49;75.35;99868.13;116348;1285;22473;-68
2022/11/17 03:44:19;;;;;;;;;;;;;;;1.49;75.22;99866.74;116322;1295;22445;-66
2022/11/17 03:47:09;;;;;;;;;;;;;;;1.47;75.14;99870.37;116333;1294;22446;-66
2022/11/17 03:50:01;;;;;;;;;;;;;;;1.43;75.37;99872.12;116381;1290;22398;-66
2022/11/17 03:52:51;;;;;;;;;;;;;;;1.40;75.48;99875.25;116359;1284;22442;-66
2022/11/17 03:55:46;;;;;;;;;;;;;;;1.36;75.47;99873.90;116342;1296;22450;-66
2022/11/17 03:58:35;;;;;;;;;;;;;;;1.31;75.49;99873.77;116326;1303;22589;-68
2022/11/17 04:01:26;;;;;;;;;;;;;;;1.27;75.43;99869.67;116350;1285;23675;-67
2022/11/17 04:04:22;;;;;;;;;;;;;;;1.29;75.61;99867.95;116364;1294;22465;-68
2022/11/17 04:07:09;;;;;;;;;;;;;;;1.31;75.50;99867.41;116366;1303;22504;-67
2022/11/17 04:09:57;;;;;;;;;;;;;;;1.31;75.34;99868.79;116374;1303;22482;-68
2022/11/17 04:15:58;;;;;;;;;;;;;;;1.24;75.43;99867.14;116330;1288;22459;-68
2022/11/17 04:18:50;;;;;;;;;;;;;;;1.20;75.37;99875.58;116321;1282;22452;-67
2022/11/17 04:21:37;;;;;;;;;;;;;;;1.14;75.34;99869.44;116333;1303;22440;-69
2022/11/17 04:24:25;;;;;;;;;;;;;;;1.10;75.54;99869.64;116326;1303;25272;-69
2022/11/17 04:30:22;;;;;;;;;;;;;;;1.06;75.72;99873.45;116334;1285;22569;-69
2022/11/17 04:33:12;;;;;;;;;;;;;;;1.08;75.74;99877.39;116333;1278;24292;-66
2022/11/17 04:36:00;;;;;;;;;;;;;;;1.13;75.90;99876.84;116366;1284;22429;-69
2022/11/17 04:38:50;;;;;;;;;;;;;;;1.16;75.94;99877.66;116328;1286;22484;-69
2022/11/17 04:42:02;;;;;;;;;;;;;;;1.18;76.03;99879.20;116317;1294;24237;-68
2022/11/17 04:44:55;;;;;;;;;;;;;;;1.19;75.92;99873.52;116337;1303;22454;-69
2022/11/17 04:47:44;;;;;;;;;;;;;;;1.15;75.86;99870.80;116349;1294;22461;-66
2022/11/17 04:50:34;;;;;;;;;;;;;;;1.13;75.85;99874.95;116318;1283;24225;-67
2022/11/17 04:53:24;;;;;;;;;;;;;;;1.08;75.74;99878.42;116303;1303;22442;-68
2022/11/17 04:56:13;;;;;;;;;;;;;;;1.06;76.19;99879.64;116304;1303;22802;-68
2022/11/17 04:59:03;;;;;;;;;;;;;;;1.03;76.23;99883.61;116326;1287;22447;-67
2022/11/17 05:01:51;;;;;;;;;;;;;;;1.01;76.41;99881.21;116023;1303;405222;-68
2022/11/17 05:04:56;;;;;;;;;;;;;;;1.01;76.41;99878.46;116328;1303;22459;-68
2022/11/17 05:07:46;;;;;;;;;;;;;;;1.05;76.58;99876.73;116355;1285;22441;-66
2022/11/17 05:13:47;;;;;;;;;;;;;;;1.15;76.27;99883.18;116301;1283;22566;-69
2022/11/17 05:19:48;;;;;;;;;;;;;;;1.13;76.23;99880.43;116331;1303;25950;-69
2022/11/17 05:25:59;;;;;;;;;;;;;;;1.14;76.20;99880.26;115937;1303;22504;-68
2022/11/17 05:28:49;;;;;;;;;;;;;;;1.11;76.16;99880.45;115950;1307;25210;-68
2022/11/17 05:31:36;;;;;;;;;;;;;;;1.09;76.25;99875.84;116221;1303;22436;-69
2022/11/17 05:34:25;;;;;;;;;;;;;;;1.07;76.24;99876.17;116334;1284;22445;-67
2022/11/17 05:37:18;;;;;;;;;;;;;;;1.05;76.27;99871.58;116364;1278;25389;-69
2022/11/17 05:40:10;;;;;;;;;;;;;;;1.02;76.07;99869.53;116296;1284;22486;-67
2022/11/17 05:42:57;;;;;;;;;;;;;;;0.99;75.98;99871.27;116351;1290;22437;-68
2022/11/17 05:45:53;;;;;;;;;;;;;;;0.98;75.78;99873.33;116313;1289;23281;-69
2022/11/17 05:48:43;;;;;;;;;;;;;;;1.00;75.72;99876.75;116314;1303;22469;-67
2022/11/17 05:51:40;;;;;;;;;;;;;;;1.05;75.85;99875.87;116353;1285;22451;-69
2022/11/17 05:54:29;;;;;;;;;;;;;;;1.11;75.84;99875.48;116323;1303;25420;-68
2022/11/17 05:57:17;;;;;;;;;;;;;;;1.14;75.75;99877.52;116336;1302;24261;-68
2022/11/17 06:00:09;;;;;;;;;;;;;;;1.15;75.85;99874.08;116322;1303;22430;-68
2022/11/17 06:03:02;;;;;;;;;;;;;;;1.16;75.69;99882.65;116353;1303;22443;-68
2022/11/17 06:05:59;;;;;;;;;;;;;;;1.14;75.66;99884.22;116369;1303;22441;-70
2022/11/17 06:08:49;;;;;;;;;;;;;;;1.12;75.46;99883.88;116383;1290;22491;-70
2022/11/17 06:11:41;;;;;;;;;;;;;;;1.08;75.56;99883.91;116386;1299;22440;-68
2022/11/17 06:14:31;;;;;;;;;;;;;;;1.03;75.47;99888.07;116321;1302;22441;-68
2022/11/17 06:17:22;;;;;;;;;;;;;;;0.99;75.15;99895.15;116276;1303;22445;-69
2022/11/17 06:20:13;;;;;;;;;;;;;;;0.95;75.23;99893.98;116345;1303;22446;-68
2022/11/17 06:23:02;;;;;;;;;;;;;;;0.91;75.07;99894.16;116332;1303;22426;-68
2022/11/17 06:25:52;;;;;;;;;;;;;;;0.89;74.76;99893.48;116342;1304;22465;-67
2022/11/17 06:28:45;;;;;;;;;;;;;;;0.89;74.82;99893.67;116307;1290;22441;-67
2022/11/17 06:31:33;;;;;;;;;;;;;;;0.93;74.68;99894.67;116374;1292;25359;-67
2022/11/17 06:34:20;;;;;;;;;;;;;;;0.98;74.87;99894.46;116305;1303;22450;-69
2022/11/17 06:37:10;;;;;;;;;;;;;;;1.04;74.50;99899.06;116298;1303;22483;-70
2022/11/17 06:40:05;;;;;;;;;;;;;;;1.07;74.54;99893.55;116308;1304;22437;-67
2022/11/17 06:43:07;;;;;;;;;;;;;;;1.08;74.22;99894.73;116270;1303;22433;-68
2022/11/17 06:46:01;;;;;;;;;;;;;;;1.07;74.05;99899.73;116347;1303;22554;-68
2022/11/17 06:48:54;;;;;;;;;;;;;;;1.05;73.79;99902.67;116323;1303;22504;-68
2022/11/17 06:51:43;;;;;;;;;;;;;;;1.02;73.93;99903.18;116356;1301;22483;-69
2022/11/17 06:54:34;;;;;;;;;;;;;;;1.00;73.16;99898.58;116319;1310;25226;-70
2022/11/17 06:57:22;;;;;;;;;;;;;;;0.96;73.19;99899.29;116336;1289;22457;-69
2022/11/17 07:00:12;;;;;;;;;;;;;;;0.93;72.74;99893.80;116312;1302;22437;-69
2022/11/17 07:03:02;;;;;;;;;;;;;;;0.92;72.65;99893.64;116372;1290;24261;-68
2022/11/17 07:05:50;;;;;;;;;;;;;;;0.94;72.49;99899.13;116346;1303;22465;-66
2022/11/17 07:08:40;;;;;;;;;;;;;;;0.97;72.22;99899.78;116355;1304;22459;-68
2022/11/17 07:11:30;;;;;;;;;;;;;;;0.99;71.56;99905.80;116353;1303;25246;-69
2022/11/17 07:14:18;;;;;;;;;;;;;;;0.99;71.28;99904.77;116348;1288;24366;-67
2022/11/17 07:17:06;;;;;;;;;;;;;;;0.97;71.40;99906.66;116355;1284;22663;-69
2022/11/17 07:19:56;;;;;;;;;;;;;;;0.95;71.83;99903.93;116347;1303;22441;-69
2022/11/17 07:22:43;;;;;;;;;;;;;;;0.93;71.83;99902.05;116336;1288;22461;-67
2022/11/17 07:25:32;;;;;;;;;;;;;;;0.91;71.91;99900.34;116333;1290;22441;-66
2022/11/17 07:28:19;;;;;;;;;;;;;;;0.89;71.74;99903.27;116347;1304;22557;-69
2022/11/17 07:31:08;;;;;;;;;;;;;;;0.86;71.76;99911.03;116327;1305;24807;-67
2022/11/17 07:33:56;;;;;;;;;;;;;;;0.87;71.71;99918.23;116324;1310;25239;-69
2022/11/17 07:36:50;;;;;;;;;;;;;;;0.88;71.38;99922.51;116316;1290;22477;-68
2022/11/17 07:39:41;;;;;;;;;;;;;;;0.92;71.48;99921.80;116351;1309;22569;-68
2022/11/17 07:42:34;;;;;;;;;;;;;;;0.95;70.78;99921.78;116294;1299;22455;-69
2022/11/17 07:45:22;;;;;;;;;;;;;;;0.89;70.81;99922.01;116369;1304;22445;-69
2022/11/17 07:48:12;;;;;;;;;;;;;;;0.87;70.67;99930.26;116321;1297;22447;-68
2022/11/17 07:51:02;;;;;;;;;;;;;;;0.85;70.76;99928.38;116304;1286;22439;-68
2022/11/17 07:53:54;;;;;;;;;;;;;;;0.81;70.62;99933.20;116316;1303;22443;-67
2022/11/17 07:56:42;;;;;;;;;;;;;;;0.77;71.02;99935.79;116380;1288;22466;-69
2022/11/17 07:59:32;;;;;;;;;;;;;;;0.74;71.00;99929.46;116308;1308;22453;-68
2022/11/17 08:02:20;;;;;;;;;;;;;;;0.71;71.17;99932.41;116318;1304;22453;-70
2022/11/17 08:05:11;;;;;;;;;;;;;;;0.67;71.12;99925.38;116368;1288;24407;-70
2022/11/17 08:08:00;;;;;;;;;;;;;;;0.65;70.96;99922.64;116379;1287;22471;-70
2022/11/17 08:10:47;;;;;;;;;;;;;;;0.66;71.05;99923.50;116373;1299;24229;-67
2022/11/17 08:13:39;;;;;;;;;;;;;;;0.69;71.45;99925.89;116343;1292;22490;-69
2022/11/17 08:16:29;;;;;;;;;;;;;;;0.74;71.45;99927.23;116375;1288;24283;-69
2022/11/17 08:19:20;;;;;;;;;;;;;;;0.80;71.55;99927.39;116300;1303;22458;-71
2022/11/17 08:22:07;;;;;;;;;;;;;;;0.80;70.99;99928.58;116370;1304;22564;-68
2022/11/17 08:24:59;;;;;;;;;;;;;;;0.78;71.39;99924.97;116340;1291;22534;-67
2022/11/17 08:27:53;;;;;;;;;;;;;;;0.78;71.54;99922.90;116349;1303;22577;-69
2022/11/17 08:30:43;;;;;;;;;;;;;;;0.78;71.48;99919.30;116345;1304;22513;-67
2022/11/17 08:33:30;;;;;;;;;;;;;;;0.75;71.37;99922.42;116407;1293;22438;-69
2022/11/17 08:36:22;;;;;;;;;;;;;;;0.73;71.30;99928.44;116305;1286;22460;-69
2022/11/17 08:39:10;;;;;;;;;;;;;;;0.70;71.17;99931.21;116326;1300;22474;-69
2022/11/17 08:41:59;;;;;;;;;;;;;;;0.70;71.25;99930.69;116331;1288;22577;-67
2022/11/17 08:44:50;;;;;;;;;;;;;;;0.75;71.23;99931.85;116346;1303;22456;-66
2022/11/17 08:47:39;;;;;;;;;;;;;;;0.81;70.83;99930.46;116317;1303;22518;-70
2022/11/17 08:50:27;;;;;;;;;;;;;;;0.78;70.31;99933.57;116330;1291;22462;-69
2022/11/17 08:53:18;;;;;;;;;;;;;;;0.75;70.63;99931.70;116343;1303;22454;-67
2022/11/17 08:56:10;;;;;;;;;;;;;;;0.75;70.69;99929.13;116366;1296;22432;-70
2022/11/17 08:59:04;;;;;;;;;;;;;;;0.73;70.75;99926.55;116326;1288;25241;-70
2022/11/17 09:02:00;;;;;;;;;;;;;;;0.74;71.34;99918.83;116340;1292;23799;-70
2022/11/17 09:04:53;;;;;;;;;;;;;;;0.76;71.38;99919.31;116326;1284;22447;-69
2022/11/17 09:07:43;;;;;;;;;;;;;;;0.74;71.18;99921.91;116398;1300;22450;-69
2022/11/17 09:10:31;;;;;;;;;;;;;;;0.76;71.69;99915.89;116351;1298;25199;-68
2022/11/17 09:13:21;;;;;;;;;;;;;;;0.77;71.54;99915.88;116344;1303;22491;-69
2022/11/17 09:16:18;;;;;;;;;;;;;;;0.77;71.42;99917.42;116341;1289;22545;-67
2022/11/17 09:19:10;;;;;;;;;;;;;;;0.74;71.08;99919.17;116348;1303;22481;-66
2022/11/17 09:21:58;;;;;;;;;;;;;;;0.69;70.81;99929.14;116328;1286;22427;-69
2022/11/17 09:24:46;;;;;;;;;;;;;;;0.66;70.76;99926.42;116310;1303;22446;-69
2022/11/17 09:27:35;;;;;;;;;;;;;;;0.68;71.27;99923.48;116365;1303;22437;-70
2022/11/17 09:30:25;;;;;;;;;;;;;;;0.75;71.27;99920.88;116405;1285;22439;-69
2022/11/17 09:33:18;;;;;;;;;;;;;;;0.81;71.01;99917.23;116375;1291;22452;-69
2022/11/17 09:36:07;;;;;;;;;;;;;;;0.80;70.49;99918.45;116337;1291;24257;-69
2022/11/17 09:38:55;;;;;;;;;;;;;;;0.78;70.51;99915.70;116413;1303;22451;-70
2022/11/17 09:41:42;;;;;;;;;;;;;;;0.78;70.89;99908.32;116352;1303;22490;-69
2022/11/17 09:44:38;;;;;;;;;;;;;;;0.77;71.01;99905.06;116344;1297;22455;-67
2022/11/17 09:47:29;;;;;;;;;;;;;;;0.77;70.84;99900.77;116297;1303;22563;-67
2022/11/17 09:50:22;;;;;;;;;;;;;;;0.74;71.13;99901.14;116310;1303;22438;-68
2022/11/17 09:53:16;;;;;;;;;;;;;;;0.74;71.33;99901.31;116294;1276;22435;-69
2022/11/17 09:56:06;;;;;;;;;;;;;;;0.74;71.11;99900.97;116369;1303;22466;-68
2022/11/17 09:58:55;;;;;;;;;;;;;;;0.72;70.94;99905.09;116324;1274;22464;-68
2022/11/17 10:01:51;;;;;;;;;;;;;;;0.67;70.70;99903.06;116328;1287;22463;-68
2022/11/17 10:04:46;;;;;;;;;;;;;;;0.62;70.52;99900.69;116306;1304;22436;-69
2022/11/17 10:07:39;;;;;;;;;;;;;;;0.63;70.68;99893.13;116345;1303;25268;-68
2022/11/17 10:10:34;;;;;;;;;;;;;;;0.68;70.74;99895.33;116365;1295;22476;-71
2022/11/17 10:13:25;;;;;;;;;;;;;;;0.71;70.72;99897.20;116346;1298;22458;-69
2022/11/17 10:16:15;;;;;;;;;;;;;;;0.75;70.56;99892.04;116388;1297;22486;-68
2022/11/17 10:19:13;;;;;;;;;;;;;;;0.80;70.98;99886.33;116373;1303;22458;-68
2022/11/17 10:22:19;;;;;;;;;;;;;;;0.85;70.73;99882.02;116338;1285;22451;-67
2022/11/17 10:25:21;;;;;;;;;;;;;;;0.86;71.06;99881.67;116370;1303;22503;-67
2022/11/17 10:28:24;;;;;;;;;;;;;;;0.84;70.64;99877.04;116344;1291;23941;-70
2022/11/17 10:31:15;;;;;;;;;;;;;;;0.80;70.70;99876.90;116354;1286;22453;-69
2022/11/17 10:34:03;;;;;;;;;;;;;;;0.77;70.82;99870.89;116332;1303;22454;-67
2022/11/17 10:36:50;;;;;;;;;;;;;;;0.76;71.06;99875.20;116349;1284;24387;-69
2022/11/17 10:39:42;;;;;;;;;;;;;;;0.76;71.23;99880.19;116363;1287;22519;-67
2022/11/17 10:42:30;;;;;;;;;;;;;;;0.76;70.87;99880.35;116375;1284;22450;-70
2022/11/17 10:45:18;;;;;;;;;;;;;;;0.73;70.44;99877.45;116399;1285;25369;-70
2022/11/17 10:48:16;;;;;;;;;;;;;;;0.69;70.31;99880.73;116307;1303;25360;-70
2022/11/17 10:51:03;;;;;;;;;;;;;;;0.65;70.17;99880.24;116366;1303;22464;-68
2022/11/17 10:54:04;;;;;;;;;;;;;;;0.62;69.48;99884.73;116324;1291;22450;-69
2022/11/17 10:56:53;;;;;;;;;;;;;;;0.56;69.15;99881.50;116321;1280;22495;-67
2022/11/17 10:59:45;;;;;;;;;;;;;;;0.57;69.37;99877.89;116298;1302;22453;-67
2022/11/17 11:02:36;;;;;;;;;;;;;;;0.63;69.42;99882.14;116335;1292;22446;-70
2022/11/17 11:06:02;;;;;;;;;;;;;;;0.69;68.49;99884.52;116336;1303;22454;-69
2022/11/17 11:09:13;;;;;;;;;;;;;;;0.72;68.65;99870.58;116354;1303;23811;-69
2022/11/17 11:12:02;;;;;;;;;;;;;;;0.75;68.89;99872.30;116371;1292;25387;-69
2022/11/17 11:14:53;;;;;;;;;;;;;;;0.77;68.39;99872.45;116312;1291;24263;-69
2022/11/17 11:17:40;;;;;;;;;;;;;;;0.77;68.72;99867.29;116345;1303;22432;-68
2022/11/17 11:20:33;;;;;;;;;;;;;;;0.77;68.61;99863.52;116312;1294;22806;-67
2022/11/17 11:23:26;;;;;;;;;;;;;;;0.77;68.14;99865.92;116338;1303;22430;-66
2022/11/17 11:26:26;;;;;;;;;;;;;;;0.76;68.65;99862.85;116274;1285;22765;-68
2022/11/17 11:29:23;;;;;;;;;;;;;;;0.77;68.30;99863.86;116306;1291;25377;-69
2022/11/17 11:32:23;;;;;;;;;;;;;;;0.78;68.62;99861.45;116359;1303;22499;-70
2022/11/17 11:35:38;;;;;;;;;;;;;;;0.81;68.77;99859.20;116320;1278;22443;-69
2022/11/17 11:38:39;;;;;;;;;;;;;;;0.81;68.77;99857.15;116347;1303;22528;-69
2022/11/17 11:41:44;;;;;;;;;;;;;;;0.83;68.70;99854.55;116326;1303;22455;-68
2022/11/17 11:44:44;;;;;;;;;;;;;;;0.83;68.37;99856.95;116326;1303;22454;-69
2022/11/17 11:47:45;;;;;;;;;;;;;;;0.89;68.20;99858.98;116364;1285;24411;-69
2022/11/17 11:50:36;;;;;;;;;;;;;;;0.97;67.83;99846.21;116319;1303;22451;-68
2022/11/17 11:53:38;;;;;;;;;;;;;;;1.08;67.87;99850.08;116370;1295;25239;-69
2022/11/17 11:56:27;;;;;;;;;;;;;;;1.19;67.60;99845.00;116336;1303;22446;-67
2022/11/17 11:59:17;;;;;;;;;;;;;;;1.22;66.72;99846.35;116342;1287;22436;-67
2022/11/17 12:02:16;;;;;;;;;;;;;;;1.23;66.60;99852.02;116358;1303;22439;-69
2022/11/17 12:05:17;;;;;;;;;;;;;;;1.23;65.80;99849.10;116328;1303;25391;-69
2022/11/17 12:08:07;;;;;;;;;;;;;;;1.21;66.31;99846.70;116354;1303;22548;-68
2022/11/17 12:10:59;;;;;;;;;;;;;;;1.17;66.01;99842.96;116370;1295;22442;-68
2022/11/17 12:13:51;;;;;;;;;;;;;;;1.11;65.37;99841.29;116354;1303;25206;-69
2022/11/17 12:16:42;;;;;;;;;;;;;;;0.99;65.05;99848.60;116372;1303;22438;-68
2022/11/17 12:19:50;;;;;;;;;;;;;;;0.87;64.98;99847.30;116385;1303;22490;-70
2022/11/17 12:22:57;;;;;;;;;;;;;;;0.73;65.50;99844.48;116264;1303;22443;-68
2022/11/17 12:25:51;;;;;;;;;;;;;;;0.61;65.16;99847.66;116290;1284;22443;-69
2022/11/17 12:28:38;;;;;;;;;;;;;;;0.48;65.57;99849.96;116315;1294;22449;-67
2022/11/17 12:31:48;;;;;;;;;;;;;;;0.38;65.73;99846.23;116312;1303;22799;-70
2022/11/17 12:34:36;;;;;;;;;;;;;;;0.28;65.82;99843.20;116309;1287;25375;-70
2022/11/17 12:37:26;;;;;;;;;;;;;;;0.20;66.51;99837.23;116365;1276;22456;-69
2022/11/17 12:40:43;;;;;;;;;;;;;;;0.14;66.32;99840.01;116324;1287;22463;-67
2022/11/17 12:43:31;;;;;;;;;;;;;;;0.08;66.11;99840.55;116319;1285;22440;-70
2022/11/17 12:46:27;;;;;;;;;;;;;;;0.04;65.84;99840.39;116367;1278;22491;-69
2022/11/17 12:49:19;;;;;;;;;;;;;;;0.00;66.07;99832.52;116349;1302;22467;-67
2022/11/17 12:52:07;;;;;;;;;;;;;;;-0.03;66.65;99829.77;116329;1303;22451;-70
2022/11/17 12:54:56;;;;;;;;;;;;;;;-0.04;66.81;99830.65;116338;1302;25912;-70
2022/11/17 12:57:43;;;;;;;;;;;;;;;-0.05;66.75;99832.70;116339;1303;22438;-70
2022/11/17 13:00:30;;;;;;;;;;;;;;;-0.07;66.14;99828.42;116330;1303;22449;-68
2022/11/17 13:03:20;;;;;;;;;;;;;;;-0.09;65.95;99823.64;116045;1303;387193;-68
2022/11/17 13:06:15;;;;;;;;;;;;;;;-0.11;66.29;99820.89;116336;1303;22441;-68
2022/11/17 13:09:11;;;;;;;;;;;;;;;-0.11;66.46;99815.75;116358;1278;22446;-69
2022/11/17 13:12:04;;;;;;;;;;;;;;;-0.09;66.05;99812.32;116329;1297;24407;-69
2022/11/17 13:14:56;;;;;;;;;;;;;;;-0.04;66.29;99814.87;116368;1288;22482;-69
2022/11/17 13:17:44;;;;;;;;;;;;;;;0.08;66.11;99815.85;116295;1284;22446;-70
2022/11/17 13:20:35;;;;;;;;;;;;;;;0.21;66.27;99813.72;116356;1288;22463;-68
2022/11/17 13:23:26;;;;;;;;;;;;;;;0.36;66.12;99814.52;116323;1303;25228;-70
2022/11/17 13:26:24;;;;;;;;;;;;;;;0.45;65.42;99806.56;116352;1303;22443;-67
2022/11/17 13:29:20;;;;;;;;;;;;;;;0.49;65.48;99796.24;116318;1285;22452;-69
2022/11/17 13:32:22;;;;;;;;;;;;;;;0.50;65.88;99800.70;116301;1284;22464;-70
2022/11/17 13:35:25;;;;;;;;;;;;;;;0.47;65.41;99803.29;116331;1284;22498;-69
2022/11/17 13:38:18;;;;;;;;;;;;;;;0.42;65.73;99804.87;116340;1303;22454;-70
2022/11/17 13:41:05;;;;;;;;;;;;;;;0.36;65.09;99806.27;116400;1303;22456;-68
2022/11/17 13:43:58;;;;;;;;;;;;;;;0.28;65.01;99800.65;116390;1284;22445;-68
2022/11/17 13:46:48;;;;;;;;;;;;;;;0.20;65.34;99800.52;116324;1303;22452;-69
2022/11/17 13:49:38;;;;;;;;;;;;;;;0.14;65.53;99797.64;116340;1303;22434;-69
2022/11/17 13:52:35;;;;;;;;;;;;;;;0.09;65.78;99789.78;116353;1281;24252;-69
2022/11/17 13:55:23;;;;;;;;;;;;;;;0.03;65.62;99796.15;116297;1285;22455;-70
2022/11/17 13:58:27;;;;;;;;;;;;;;;-0.03;66.11;99800.80;116323;1303;25412;-70
2022/11/17 14:01:20;;;;;;;;;;;;;;;-0.08;66.15;99800.31;116332;1284;22431;-67
2022/11/17 14:04:18;;;;;;;;;;;;;;;-0.13;66.18;99803.59;116331;1285;22493;-69
2022/11/17 14:07:05;;;;;;;;;;;;;;;-0.20;66.43;99798.48;116331;1287;24261;-70
2022/11/17 14:10:14;;;;;;;;;;;;;;;-0.25;66.48;99801.06;116317;1302;22447;-69
2022/11/17 14:13:29;;;;;;;;;;;;;;;-0.32;66.32;99799.71;116328;1292;24257;-70
2022/11/17 14:16:27;;;;;;;;;;;;;;;-0.38;66.67;99799.22;116245;1293;22444;-70
2022/11/17 14:19:29;;;;;;;;;;;;;;;-0.45;66.85;99799.58;116323;1291;22465;-69
2022/11/17 14:22:27;;;;;;;;;;;;;;;-0.53;67.14;99793.77;116323;1297;22439;-70
2022/11/17 14:25:18;;;;;;;;;;;;;;;-0.59;67.05;99789.84;116365;1275;22493;-68
2022/11/17 14:28:13;;;;;;;;;;;;;;;-0.65;67.30;99788.99;116300;1289;22455;-70
2022/11/17 14:31:00;;;;;;;;;;;;;;;-0.70;67.29;99793.63;116386;1300;22458;-70
2022/11/17 14:33:49;;;;;;;;;;;;;;;-0.75;67.51;99792.96;116342;1285;22454;-69
2022/11/17 14:36:36;;;;;;;;;;;;;;;-0.81;67.69;99793.13;116337;1303;22469;-70
2022/11/17 14:39:25;;;;;;;;;;;;;;;-0.85;67.88;99792.11;116345;1285;22451;-70
2022/11/17 14:42:12;;;;;;;;;;;;;;;-0.90;68.24;99791.77;116338;1285;24261;-68
2022/11/17 14:44:59;;;;;;;;;;;;;;;-0.99;68.41;99790.23;116342;1279;22407;-68
2022/11/17 14:51:57;;;;;;;;;;;;;;;-1.30;68.89;99794.52;116443;1274;25360;-68
2022/11/17 14:54:45;;;;;;;;;;;;;;;-1.45;69.14;99798.26;116416;1288;22574;-70
2022/11/17 15:01:53;;;;;;;;;;;;;;;-1.82;70.09;99793.58;116758;1275;22448;-69
2022/11/17 15:04:41;;;;;;;;;;;;;;;-1.95;70.36;99801.39;116581;1272;22443;-68
2022/11/17 15:07:28;;;;;;;;;;;;;;;-2.07;70.80;99799.98;116585;1288;22439;-70
2022/11/17 15:10:19;;;;;;;;;;;;;;;-2.19;70.99;99801.47;116618;1301;25370;-70
2022/11/17 15:13:06;;;;;;;;;;;;;;;-2.30;71.40;99802.27;116591;1285;25189;-67
2022/11/17 15:16:04;;;;;;;;;;;;;;;-2.43;71.61;99799.14;116546;1297;22563;-70
2022/11/17 15:18:56;;;;;;;;;;;;;;;-2.54;72.16;99800.60;116595;1283;22459;-69
2022/11/17 15:21:45;;;;;;;;;;;;;;;-2.63;72.33;99799.03;116596;1278;22452;-69
2022/11/17 15:24:35;;;;;;;;;;;;;;;-2.71;72.84;99799.66;116628;1292;22448;-68
2022/11/17 15:27:23;;;;;;;;;;;;;;;-2.79;73.32;99799.09;116541;1281;22443;-69
2022/11/17 15:30:15;;;;;;;;;;;;;;;-2.85;73.79;99798.20;116574;1284;22910;-69